Houston, Texas
Traffic Map
Current Weather Conditions
Houston, Texas
Overcast
Overcast
29°
Feels Like: 33°
Wind Chill: 29° Ceiling: 18000
Heat Index: 33° Visibility: 10mi
Dew Point: 23° Wind: 9mph
Humidity: 67% Direction: 130° (SE)
Pressure: 30.04in Gusts: 0mph
Raw Report DataKIAH 311853Z 13008KT 10SM SCT040 BKN180 OVC250 29/23 A3004 RMK AO2 SLP171 CB DSIPTD T02940228
Traffic Incident Summary
Active as of:
Severity:
Category:
InformationThere was an issue retrieving the traffic information for this location. Please try a different location or try again shortly.
Advertisements
Track Severe Weather on mobile